createdAt,value
2022-12-22T00:01:04.863Z,4.83
2022-12-22T00:06:28.292Z,4.84
2022-12-22T00:11:48.399Z,4.80
2022-12-22T00:17:08.465Z,4.70
2022-12-22T00:22:41.201Z,4.50
2022-12-22T00:28:01.306Z,4.39
2022-12-22T00:33:23.801Z,4.30
2022-12-22T00:38:43.820Z,4.24
2022-12-22T00:44:04.072Z,4.20
2022-12-22T00:49:24.142Z,4.09
2022-12-22T00:54:44.156Z,4.04
2022-12-22T01:00:05.461Z,3.95
2022-12-22T01:05:26.188Z,3.85
2022-12-22T01:10:46.259Z,3.91
2022-12-22T01:16:06.354Z,4.09
2022-12-22T01:21:27.243Z,4.06
2022-12-22T01:26:47.037Z,4.17
2022-12-22T01:32:06.902Z,4.26
2022-12-22T01:37:27.022Z,4.27
2022-12-22T01:42:49.817Z,4.42
2022-12-22T01:48:09.870Z,4.57
2022-12-22T01:53:36.310Z,4.53
2022-12-22T01:59:00.894Z,4.54
2022-12-22T02:04:21.047Z,4.50
2022-12-22T02:09:44.197Z,4.64
2022-12-22T02:15:19.874Z,4.58
2022-12-22T02:20:48.983Z,4.67
2022-12-22T02:26:18.112Z,4.74
2022-12-22T02:31:38.124Z,4.81
2022-12-22T02:37:41.004Z,4.72
2022-12-22T02:43:13.225Z,4.70
2022-12-22T02:48:40.713Z,4.74
2022-12-22T02:54:00.914Z,4.99
2022-12-22T02:59:21.003Z,5.19
2022-12-22T03:04:41.234Z,5.28
2022-12-22T03:10:01.306Z,5.30
2022-12-22T03:15:21.366Z,5.31
2022-12-22T03:20:41.504Z,5.23
2022-12-22T03:25:53.200Z,5.27
2022-12-22T03:31:04.614Z,5.24
2022-12-22T03:36:07.138Z,5.22
2022-12-22T03:41:28.555Z,5.20
2022-12-22T03:46:33.079Z,5.22
2022-12-22T03:51:36.202Z,5.19
2022-12-22T03:56:37.673Z,5.21
2022-12-22T04:01:42.456Z,5.37
2022-12-22T04:06:44.566Z,5.45
2022-12-22T04:12:04.654Z,5.28
2022-12-22T04:17:07.337Z,5.31
2022-12-22T04:22:08.895Z,5.34
2022-12-22T04:27:10.340Z,5.47
2022-12-22T04:32:11.837Z,5.49
2022-12-22T04:37:17.400Z,5.44
2022-12-22T04:42:19.375Z,5.44
2022-12-22T04:47:20.810Z,5.54
2022-12-22T04:52:22.695Z,5.58
2022-12-22T04:57:24.176Z,5.55
2022-12-22T05:02:25.692Z,5.41
2022-12-22T05:07:27.265Z,5.45
2022-12-22T05:12:49.110Z,5.50
2022-12-22T05:17:50.740Z,5.59
2022-12-22T05:22:52.221Z,5.63
2022-12-22T05:27:53.699Z,5.69
2022-12-22T05:32:55.182Z,5.74
2022-12-22T05:37:56.709Z,5.72
2022-12-22T05:42:58.150Z,5.66
2022-12-22T05:47:59.575Z,5.71
2022-12-22T05:53:01.025Z,5.80
2022-12-22T05:58:02.657Z,5.94
2022-12-22T06:03:04.315Z,5.91
2022-12-22T06:08:05.762Z,5.94
2022-12-22T06:13:07.208Z,5.85
2022-12-22T06:18:08.632Z,5.88
2022-12-22T06:23:10.058Z,5.99
2022-12-22T06:28:11.482Z,6.09
2022-12-22T06:33:12.920Z,6.04
2022-12-22T06:38:14.364Z,6.17
2022-12-22T06:43:15.859Z,6.25
2022-12-22T06:48:17.400Z,6.37
2022-12-22T06:53:18.842Z,6.40
2022-12-22T06:58:20.273Z,6.39
2022-12-22T07:03:21.809Z,6.41
2022-12-22T07:08:23.352Z,6.42
2022-12-22T07:13:31.565Z,6.19
2022-12-22T07:18:35.282Z,6.04
2022-12-22T07:23:37.565Z,6.10
2022-12-22T07:28:40.963Z,6.16
2022-12-22T07:33:42.419Z,6.09
2022-12-22T07:38:46.637Z,6.18
2022-12-22T07:43:48.121Z,6.14
2022-12-22T07:49:08.266Z,6.24
2022-12-22T07:54:12.093Z,6.28
2022-12-22T07:59:14.352Z,6.17
2022-12-22T08:04:15.944Z,6.13
2022-12-22T08:09:18.105Z,6.19
2022-12-22T08:14:19.567Z,6.18
2022-12-22T08:19:21.011Z,6.20
2022-12-22T08:24:22.594Z,6.30
2022-12-22T08:29:29.110Z,6.30
2022-12-22T08:34:30.801Z,6.41
2022-12-22T08:39:37.561Z,6.49
2022-12-22T08:44:39.133Z,6.44
2022-12-22T08:49:41.134Z,6.41
2022-12-22T08:54:42.778Z,6.31
2022-12-22T08:59:44.246Z,6.49
2022-12-22T09:04:45.801Z,6.89
2022-12-22T09:09:47.243Z,7.57
2022-12-22T09:14:48.834Z,7.73
2022-12-22T09:19:50.287Z,7.66
2022-12-22T09:24:51.736Z,7.70
2022-12-22T09:29:53.199Z,7.73
2022-12-22T09:34:54.638Z,7.73
2022-12-22T09:39:56.108Z,7.97
2022-12-22T09:44:57.601Z,7.93
2022-12-22T09:49:59.513Z,7.73
2022-12-22T09:55:12.384Z,7.68
2022-12-22T10:00:16.263Z,7.65
2022-12-22T10:05:30.967Z,7.67
2022-12-22T10:10:32.544Z,7.61
2022-12-22T10:15:39.883Z,7.59
2022-12-22T10:20:44.685Z,7.66
2022-12-22T10:31:22.922Z,7.73
2022-12-22T10:36:28.001Z,7.62
2022-12-22T10:41:32.877Z,7.71
2022-12-22T10:46:48.181Z,7.78
2022-12-22T10:52:09.911Z,7.70
2022-12-22T10:57:14.043Z,7.61
2022-12-22T11:02:22.619Z,7.72
2022-12-22T11:07:25.017Z,7.67
2022-12-22T11:12:47.409Z,7.64
2022-12-22T11:17:57.796Z,7.44
2022-12-22T11:23:18.322Z,7.42
2022-12-22T11:28:45.944Z,7.32
2022-12-22T11:34:20.779Z,7.30
2022-12-22T11:45:29.264Z,7.40
2022-12-22T11:51:00.345Z,7.32
2022-12-22T11:56:32.098Z,7.45
2022-12-22T12:01:48.722Z,7.59
2022-12-22T12:07:00.921Z,7.77
2022-12-22T12:12:13.116Z,7.70
2022-12-22T12:17:25.123Z,7.54
2022-12-22T12:22:52.803Z,7.78
2022-12-22T12:28:05.439Z,7.85
2022-12-22T12:33:28.492Z,7.77
2022-12-22T12:39:07.440Z,7.86
2022-12-22T12:44:04.876Z,8.32
2022-12-22T12:49:36.246Z,8.40
2022-12-22T12:54:41.583Z,8.43
2022-12-22T12:59:47.238Z,8.42
2022-12-22T13:05:14.330Z,8.46
2022-12-22T13:10:21.955Z,8.64
2022-12-22T13:15:37.475Z,8.75
2022-12-22T13:20:42.548Z,8.88
2022-12-22T13:25:55.096Z,8.83
2022-12-22T13:31:13.826Z,8.71
2022-12-22T13:36:22.026Z,8.74
2022-12-22T13:48:06.135Z,8.13
2022-12-22T13:53:34.439Z,7.97
2022-12-22T13:58:41.548Z,8.05
2022-12-22T14:04:04.794Z,8.04
2022-12-22T14:09:18.464Z,8.20
2022-12-22T14:14:24.665Z,8.33
2022-12-22T14:19:33.720Z,8.35
2022-12-22T14:24:44.505Z,8.44
2022-12-22T14:29:46.067Z,8.47
2022-12-22T14:34:53.988Z,8.51
2022-12-22T14:39:56.392Z,8.62
2022-12-22T14:44:58.346Z,8.65
2022-12-22T14:50:16.885Z,8.56
2022-12-22T14:55:25.298Z,8.51
2022-12-22T15:00:34.008Z,8.53
2022-12-22T15:05:39.060Z,8.58
2022-12-22T15:10:44.645Z,8.66
2022-12-22T15:15:46.068Z,8.46
2022-12-22T15:20:47.492Z,8.53
2022-12-22T15:25:48.989Z,8.55
2022-12-22T15:30:50.425Z,8.55
2022-12-22T15:35:52.538Z,8.46
2022-12-22T15:41:00.271Z,8.59
2022-12-22T15:46:03.677Z,8.58
2022-12-22T15:51:08.579Z,8.56
2022-12-22T15:56:18.088Z,8.62
2022-12-22T16:01:20.410Z,8.65
2022-12-22T16:06:22.823Z,8.61
2022-12-22T16:11:25.058Z,8.57
2022-12-22T16:16:26.527Z,8.56
2022-12-22T16:21:31.619Z,8.64
2022-12-22T16:26:33.139Z,8.69
2022-12-22T16:31:34.625Z,8.80
2022-12-22T16:36:36.084Z,8.77
2022-12-22T16:41:37.920Z,8.78
2022-12-22T16:46:39.603Z,8.82
2022-12-22T16:51:49.625Z,8.83
2022-12-22T16:56:57.449Z,8.74
2022-12-22T17:01:59.045Z,8.72
2022-12-22T17:07:02.168Z,8.66
2022-12-22T17:12:10.746Z,8.62
2022-12-22T17:17:32.889Z,8.66
2022-12-22T17:22:39.180Z,8.75
2022-12-22T17:27:40.839Z,8.78
2022-12-22T17:32:42.385Z,8.85
2022-12-22T17:37:46.186Z,8.88
2022-12-22T17:42:47.773Z,8.87
2022-12-22T17:47:49.212Z,8.90
2022-12-22T17:52:50.764Z,8.78
2022-12-22T17:57:53.542Z,8.75
2022-12-22T18:02:55.605Z,8.93
2022-12-22T18:07:58.948Z,8.82
2022-12-22T18:13:01.582Z,9.03
2022-12-22T18:18:03.104Z,9.12
2022-12-22T18:23:04.904Z,9.12
2022-12-22T18:28:06.767Z,9.16
2022-12-22T18:33:08.943Z,9.09
2022-12-22T18:38:32.958Z,9.01
2022-12-22T18:43:34.430Z,9.19
2022-12-22T18:48:35.890Z,9.13
2022-12-22T18:53:37.313Z,9.18
2022-12-22T18:58:39.790Z,9.13
2022-12-22T19:03:41.229Z,9.08
2022-12-22T19:08:45.989Z,8.97
2022-12-22T19:13:51.965Z,8.90
2022-12-22T19:18:55.097Z,9.14
2022-12-22T19:23:56.542Z,9.10
2022-12-22T19:29:01.460Z,8.95
2022-12-22T19:34:05.421Z,8.88
2022-12-22T19:39:06.909Z,8.68
2022-12-22T19:44:17.196Z,8.57
2022-12-22T19:49:22.406Z,8.73
2022-12-22T19:54:24.379Z,8.69
2022-12-22T19:59:38.531Z,8.71
2022-12-22T20:04:40.705Z,8.72
2022-12-22T20:09:42.257Z,8.79
2022-12-22T20:14:43.762Z,8.79
2022-12-22T20:19:45.187Z,8.98
2022-12-22T20:24:48.669Z,8.94
2022-12-22T20:29:50.180Z,8.92
2022-12-22T20:34:51.627Z,8.92
2022-12-22T20:39:53.081Z,8.89
2022-12-22T20:45:02.791Z,8.93
2022-12-22T20:50:23.904Z,8.96
2022-12-22T20:55:28.438Z,8.97
2022-12-22T21:00:29.891Z,8.91
2022-12-22T21:05:31.370Z,8.56
2022-12-22T21:10:32.782Z,8.86
2022-12-22T21:15:34.624Z,8.80
2022-12-22T21:20:36.052Z,8.80
2022-12-22T21:25:43.181Z,8.74
2022-12-22T21:30:47.838Z,8.76
2022-12-22T21:35:50.849Z,8.97
2022-12-22T21:40:52.318Z,8.84
2022-12-22T21:45:53.858Z,8.85
2022-12-22T21:50:55.724Z,8.83
2022-12-22T21:55:57.145Z,9.04
2022-12-22T22:00:58.624Z,9.11
2022-12-22T22:06:00.116Z,8.90
2022-12-22T22:11:01.537Z,9.06
2022-12-22T22:16:03.113Z,8.98
2022-12-22T22:21:07.690Z,8.99
2022-12-22T22:26:09.851Z,8.99
2022-12-22T22:31:11.683Z,8.89
2022-12-22T22:36:13.765Z,8.90
2022-12-22T22:41:15.277Z,8.89
2022-12-22T22:46:16.749Z,8.81
2022-12-22T22:51:18.185Z,8.69
2022-12-22T22:56:19.613Z,8.52
2022-12-22T23:01:21.076Z,8.58
2022-12-22T23:06:22.573Z,8.67
2022-12-22T23:11:24.030Z,8.60
2022-12-22T23:16:25.704Z,8.57
2022-12-22T23:21:27.511Z,8.47
2022-12-22T23:26:28.985Z,8.41
2022-12-22T23:31:34.381Z,8.35
2022-12-22T23:36:35.865Z,8.31
2022-12-22T23:41:37.353Z,8.25
2022-12-22T23:46:40.102Z,8.21
2022-12-22T23:51:41.608Z,8.12
2022-12-22T23:56:43.068Z,8.06
